createdAt,value
2024-04-09T00:19:03.463Z,13.99
2024-04-09T00:49:05.975Z,13.63
2024-04-09T01:19:08.928Z,13.38
2024-04-09T01:49:11.316Z,13.23
2024-04-09T02:19:14.087Z,13.13
2024-04-09T02:49:16.189Z,12.60
2024-04-09T03:19:18.579Z,12.18
2024-04-09T03:49:21.077Z,11.86
2024-04-09T04:19:24.129Z,11.67
2024-04-09T04:49:26.414Z,11.87
2024-04-09T05:19:28.476Z,12.28
2024-04-09T05:49:30.737Z,12.94
2024-04-09T06:19:33.611Z,13.81
2024-04-09T06:49:35.979Z,14.93
2024-04-09T07:19:38.936Z,16.07
2024-04-09T07:49:40.485Z,17.51
2024-04-09T08:19:43.030Z,18.96
2024-04-09T08:49:44.836Z,20.37
2024-04-09T09:19:47.443Z,21.54
2024-04-09T09:49:50.633Z,22.81
2024-04-09T10:19:57.846Z,24.17
2024-04-09T10:49:59.854Z,25.31
2024-04-09T11:20:02.035Z,26.16
2024-04-09T11:50:03.765Z,27.00
2024-04-09T12:20:05.979Z,27.37
2024-04-09T12:50:08.278Z,27.49
2024-04-09T13:20:10.739Z,27.20
2024-04-09T13:50:12.499Z,26.95
2024-04-09T14:20:15.690Z,26.71
2024-04-09T14:50:18.510Z,26.21
2024-04-09T15:20:20.668Z,25.84
2024-04-09T15:50:22.940Z,26.11
2024-04-09T16:20:25.667Z,25.30
2024-04-09T16:50:27.981Z,24.44
2024-04-09T17:20:30.415Z,23.04
2024-04-09T17:50:32.663Z,21.19
2024-04-09T18:20:35.638Z,19.85
2024-04-09T18:50:38.144Z,18.61
2024-04-09T19:20:40.314Z,17.67
2024-04-09T19:50:42.660Z,18.40
2024-04-09T20:20:46.051Z,18.48
2024-04-09T20:50:48.459Z,17.42
2024-04-09T21:20:50.603Z,16.64
2024-04-09T21:50:54.136Z,16.17
2024-04-09T22:20:57.182Z,16.07
2024-04-09T22:50:58.652Z,15.83
2024-04-09T23:21:00.960Z,15.57
2024-04-09T23:51:02.456Z,14.61
